Time;durP1;ratioP1;P1;durP2;ratioP2;P2;SDS_P1;SDS_P2;PMS_P1;PMS_P2;Temp;Humidity;BMP_temperature;BMP_pressure;BME280_temperature;BME280_humidity;BME280_pressure;Samples;Min_cycle;Max_cycle;Signal;HPM_P1;HPM_P2
2022/05/25 00:02:01;;;;;;;2.90;1.00;;;;;;;10.70;87.15;101011.69;4989477;28;20040;-89
2022/05/25 00:04:31;;;;;;;2.75;1.05;;;;;;;10.69;87.18;101011.81;4993984;28;20037;-88
2022/05/25 00:06:57;;;;;;;1.20;0.93;;;;;;;10.67;87.43;101017.16;4979687;28;20034;-88
2022/05/25 00:09:23;;;;;;;1.50;0.90;;;;;;;10.63;87.41;101010.66;4995164;28;20383;-89
2022/05/25 00:11:48;;;;;;;2.15;0.90;;;;;;;10.61;87.27;101009.19;4993935;28;20025;-89
2022/05/25 00:14:13;;;;;;;1.80;0.90;;;;;;;10.59;87.30;101011.13;4976146;28;20022;-88
2022/05/25 00:16:39;;;;;;;2.15;1.00;;;;;;;10.54;87.42;101021.94;4993050;28;20030;-88
2022/05/25 00:21:50;;;;;;;2.67;0.80;;;;;;;10.48;87.31;101025.94;5019338;28;20033;-89
2022/05/25 00:24:15;;;;;;;2.42;0.80;;;;;;;10.45;87.41;101023.66;4989737;28;20112;-88
2022/05/25 00:26:41;;;;;;;5.15;1.00;;;;;;;10.42;87.48;101018.75;4991475;28;20042;-89
2022/05/25 00:29:07;;;;;;;6.20;1.10;;;;;;;10.39;87.63;101018.25;4991015;28;20033;-89
2022/05/25 00:31:33;;;;;;;4.43;1.08;;;;;;;10.36;87.61;101021.13;4996155;28;20654;-89
2022/05/25 00:33:58;;;;;;;2.95;1.20;;;;;;;10.30;87.91;101020.78;4978609;28;20029;-89
2022/05/25 00:36:24;;;;;;;5.00;1.40;;;;;;;10.26;88.22;101026.34;4991216;28;20394;-89
2022/05/25 00:38:50;;;;;;;2.03;0.93;;;;;;;10.22;88.75;101028.44;4992706;28;20068;-89
2022/05/25 00:41:15;;;;;;;2.28;1.10;;;;;;;10.21;88.56;101023.38;4988584;28;20018;-89
2022/05/25 00:43:42;;;;;;;1.45;0.95;;;;;;;10.20;88.52;101030.34;4996525;28;20040;-88
2022/05/25 00:46:16;;;;;;;1.90;1.10;;;;;;;10.18;88.49;101024.50;5003548;28;20034;-89
2022/05/25 00:48:50;;;;;;;1.77;0.85;;;;;;;10.14;88.66;101039.53;5003589;28;20570;-89
2022/05/25 00:51:22;;;;;;;2.45;1.08;;;;;;;10.12;88.72;101036.28;4998682;28;20084;-88
2022/05/25 00:54:04;;;;;;;3.20;0.85;;;;;;;10.11;88.67;101039.84;4986044;28;20029;-89
2022/05/25 00:56:33;;;;;;;2.07;1.47;;;;;;;10.08;89.18;101039.31;4992361;28;20169;-88
2022/05/25 00:59:06;;;;;;;2.60;1.20;;;;;;;10.05;89.12;101035.22;5010041;28;20032;-89
2022/05/25 01:01:32;;;;;;;3.85;1.25;;;;;;;10.04;89.17;101037.94;5000419;28;20034;-89
2022/05/25 01:04:04;;;;;;;6.32;1.30;;;;;;;10.00;89.57;101041.81;4995375;28;20037;-89
2022/05/25 01:06:49;;;;;;;3.78;1.33;;;;;;;9.98;89.96;101052.31;4995330;28;20034;-89
2022/05/25 01:09:47;;;;;;;3.90;1.60;;;;;;;9.96;90.34;101051.63;5011896;28;20072;-89
2022/05/25 01:12:37;;;;;;;3.33;1.42;;;;;;;9.96;90.45;101050.84;4982985;28;20042;-89
2022/05/25 01:15:38;;;;;;;3.83;1.63;;;;;;;9.93;90.49;101042.41;4978855;28;20040;-89
2022/05/25 01:18:41;;;;;;;2.83;1.45;;;;;;;9.92;91.03;101051.13;5007445;28;20053;-89
2022/05/25 01:21:32;;;;;;;2.03;1.50;;;;;;;9.90;91.15;101050.44;5010632;28;20029;-89
2022/05/25 01:24:03;;;;;;;3.50;1.70;;;;;;;9.86;91.14;101051.69;4988325;28;20042;-89
2022/05/25 01:26:57;;;;;;;3.80;2.03;;;;;;;9.86;91.04;101049.13;5003783;28;20026;-89
2022/05/25 01:29:41;;;;;;;;;;;;;;;9.87;91.43;101049.91;4994122;28;20078;-89
2022/05/25 01:32:31;;;;;;;4.10;2.00;;;;;;;9.86;91.20;101054.28;5010972;28;19920;-89
2022/05/25 01:34:56;;;;;;;3.58;2.05;;;;;;;9.87;91.57;101068.88;5004764;28;20172;-89
2022/05/25 01:37:46;;;;;;;4.30;2.13;;;;;;;9.87;91.05;101055.09;5009381;28;20840;-89
2022/05/25 01:40:39;;;;;;;6.18;2.22;;;;;;;9.86;91.42;101063.84;5000048;28;20037;-89
2022/05/25 01:43:10;;;;;;;4.10;2.17;;;;;;;9.81;91.23;101059.09;4986179;28;20305;-89
2022/05/25 01:45:43;;;;;;;5.15;1.95;;;;;;;9.79;91.24;101065.38;5030589;28;20038;-89
2022/05/25 01:48:11;;;;;;;4.32;2.20;;;;;;;9.76;91.61;101074.25;5026129;28;20412;-89
2022/05/25 01:51:11;;;;;;;4.78;2.10;;;;;;;9.74;91.65;101071.81;5008659;28;20042;-89
2022/05/25 01:53:44;;;;;;;2.05;1.80;;;;;;;9.72;91.43;101072.94;4957467;28;20803;-89
2022/05/25 01:56:13;;;;;;;6.57;2.08;;;;;;;9.70;91.46;101067.03;5011095;28;20041;-89
2022/05/25 01:58:43;;;;;;;5.22;2.30;;;;;;;9.71;91.59;101066.91;4994730;28;20033;-89
2022/05/25 02:01:11;;;;;;;2.80;2.03;;;;;;;9.71;91.76;101071.28;4994194;28;20038;-88
2022/05/25 02:07:02;;;;;;;11.70;4.03;;;;;;;9.71;91.85;101079.84;5011446;28;20394;-88
2022/05/25 02:10:05;;;;;;;6.05;2.38;;;;;;;9.67;92.00;101075.94;4996380;28;20124;-89
2022/05/25 02:12:55;;;;;;;4.15;2.50;;;;;;;9.64;91.84;101080.56;4985153;28;20053;-89
2022/05/25 02:15:53;;;;;;;4.97;2.30;;;;;;;9.61;92.37;101080.88;5012912;28;20026;-89
2022/05/25 02:18:54;;;;;;;4.55;2.67;;;;;;;9.60;92.44;101089.59;4992632;28;20034;-89
2022/05/25 02:21:41;;;;;;;5.05;2.35;;;;;;;9.59;92.71;101082.75;4981261;28;20049;-88
2022/05/25 02:24:13;;;;;;;7.03;3.22;;;;;;;9.59;92.41;101087.94;4986745;28;20038;-89
2022/05/25 02:27:02;;;;;;;7.68;3.20;;;;;;;9.60;92.92;101087.00;4992459;28;20041;-89
2022/05/25 02:29:42;;;;;;;6.85;3.42;;;;;;;9.63;92.67;101091.91;4985949;28;20038;-89
2022/05/25 02:32:17;;;;;;;6.53;3.10;;;;;;;9.59;92.52;101088.78;4987123;28;20036;-89
2022/05/25 02:34:47;;;;;;;6.78;3.00;;;;;;;9.57;92.62;101095.03;4994734;28;20490;-89
2022/05/25 02:37:15;;;;;;;5.43;2.92;;;;;;;9.55;92.82;101098.59;5022635;28;20499;-89
2022/05/25 02:39:42;;;;;;;7.10;3.03;;;;;;;9.54;93.09;101096.16;5017329;28;20104;-89
2022/05/25 02:42:15;;;;;;;5.15;2.80;;;;;;;9.51;93.13;101105.03;4984706;28;20604;-89
2022/05/25 02:44:42;;;;;;;7.28;3.25;;;;;;;9.48;93.23;101104.50;5006126;28;20371;-89
2022/05/25 02:47:08;;;;;;;6.63;3.25;;;;;;;9.47;93.30;101108.03;4997099;28;20030;-89
2022/05/25 02:49:35;;;;;;;7.72;3.33;;;;;;;9.44;93.37;101111.72;5014486;28;20033;-89
2022/05/25 02:52:00;;;;;;;6.88;3.35;;;;;;;9.46;93.22;101107.22;4994621;28;20080;-89
2022/05/25 02:54:26;;;;;;;6.38;3.10;;;;;;;9.48;93.30;101107.88;4994206;28;20034;-89
2022/05/25 02:56:52;;;;;;;7.05;3.88;;;;;;;9.47;93.43;101108.03;4981380;28;20049;-89
2022/05/25 02:59:17;;;;;;;7.55;3.60;;;;;;;9.43;93.87;101123.00;5004215;28;20029;-90
2022/05/25 03:01:43;;;;;;;7.70;4.07;;;;;;;9.41;94.14;101118.94;4994281;28;20556;-89
2022/05/25 03:04:08;;;;;;;6.50;3.40;;;;;;;9.39;94.42;101123.44;5036582;28;20042;-89
2022/05/25 03:06:34;;;;;;;6.28;3.50;;;;;;;9.38;94.42;101124.38;5036228;28;20065;-89
2022/05/25 03:09:00;;;;;;;9.00;3.67;;;;;;;9.40;94.74;101127.66;5007794;28;20084;-89
2022/05/25 03:11:25;;;;;;;8.80;3.92;;;;;;;9.39;94.69;101126.03;5017111;28;20085;-89
2022/05/25 03:13:51;;;;;;;11.50;3.95;;;;;;;9.37;94.93;101122.78;5016199;28;20684;-89
2022/05/25 03:16:19;;;;;;;8.18;4.72;;;;;;;9.38;95.05;101130.41;5016652;28;20037;-89
2022/05/25 03:18:46;;;;;;;14.20;4.93;;;;;;;9.37;95.09;101133.94;5014127;28;20096;-89
2022/05/25 03:21:12;;;;;;;12.75;4.65;;;;;;;9.35;95.05;101130.69;5003272;28;20094;-89
2022/05/25 03:23:37;;;;;;;12.70;4.53;;;;;;;9.32;95.08;101128.34;5028977;28;20474;-89
2022/05/25 03:26:03;;;;;;;13.70;4.80;;;;;;;9.35;95.14;101135.84;5014473;28;20045;-89
2022/05/25 03:28:28;;;;;;;8.32;4.28;;;;;;;9.31;94.96;101143.06;5001254;28;20121;-89
2022/05/25 03:30:54;;;;;;;14.85;5.03;;;;;;;9.34;94.92;101144.56;4970950;28;20054;-89
2022/05/25 03:33:20;;;;;;;7.47;4.55;;;;;;;9.36;94.62;101142.63;4990841;28;20026;-89
2022/05/25 03:35:45;;;;;;;13.75;4.85;;;;;;;9.33;94.77;101142.94;5013114;28;20493;-88
2022/05/25 03:38:11;;;;;;;11.00;4.00;;;;;;;9.34;95.13;101147.16;5008505;28;20672;-89
2022/05/25 03:40:37;;;;;;;10.18;5.60;;;;;;;9.31;94.95;101142.25;4988639;28;20022;-89
2022/05/25 03:43:05;;;;;;;12.88;5.07;;;;;;;9.32;95.19;101152.47;4980885;28;20030;-88
2022/05/25 03:45:30;;;;;;;9.68;4.55;;;;;;;9.30;95.11;101148.38;5013369;28;20041;-89
2022/05/25 03:47:56;;;;;;;12.25;5.50;;;;;;;9.29;95.29;101159.72;4996887;28;20029;-89
2022/05/25 03:50:23;;;;;;;11.30;4.88;;;;;;;9.32;95.26;101160.25;4996584;28;20517;-89
2022/05/25 03:52:49;;;;;;;10.82;5.38;;;;;;;9.31;95.30;101155.19;5005049;28;20030;-88
2022/05/25 03:55:14;;;;;;;13.27;5.32;;;;;;;9.31;95.27;101173.31;4980452;28;20033;-89
2022/05/25 03:57:40;;;;;;;12.43;5.80;;;;;;;9.31;95.66;101171.53;5009243;28;20538;-89
2022/05/25 04:00:06;;;;;;;11.88;4.97;;;;;;;9.30;95.51;101163.91;4996799;28;20057;-89
2022/05/25 04:02:32;;;;;;;8.55;4.10;;;;;;;9.28;95.45;101173.59;4994486;28;20026;-89
2022/05/25 04:05:10;;;;;;;15.43;5.00;;;;;;;9.29;95.75;101164.88;4984535;28;20175;-89
2022/05/25 04:07:44;;;;;;;10.82;4.80;;;;;;;9.29;95.78;101167.47;4982216;28;20137;-89
2022/05/25 04:10:13;;;;;;;13.20;5.18;;;;;;;9.29;95.63;101170.06;4980362;28;20575;-89
2022/05/25 04:12:40;;;;;;;12.25;4.95;;;;;;;9.30;95.42;101174.25;5008574;28;20045;-89
2022/05/25 04:15:07;;;;;;;11.15;4.78;;;;;;;9.30;95.32;101182.03;5018774;28;20097;-89
2022/05/25 04:17:33;;;;;;;10.48;4.95;;;;;;;9.33;95.48;101179.16;4993083;28;20164;-89
2022/05/25 04:19:59;;;;;;;12.45;4.93;;;;;;;9.34;95.42;101178.19;4989543;28;20037;-89
2022/05/25 04:22:24;;;;;;;11.98;4.88;;;;;;;9.39;95.17;101180.38;4996597;28;20034;-88
2022/05/25 04:24:50;;;;;;;9.15;4.35;;;;;;;9.38;95.21;101178.75;5011962;28;20030;-89
2022/05/25 04:27:16;;;;;;;14.38;5.35;;;;;;;9.42;95.16;101191.28;4996410;28;20747;-88
2022/05/25 04:29:41;;;;;;;13.00;4.68;;;;;;;9.46;94.15;101177.09;4997583;28;20030;-89
2022/05/25 04:32:07;;;;;;;10.15;5.05;;;;;;;9.41;94.39;101181.88;5009857;28;20395;-89
2022/05/25 04:34:33;;;;;;;10.10;4.32;;;;;;;9.43;94.73;101181.75;5009399;28;20026;-87
2022/05/25 04:37:48;;;;;;;11.15;5.10;;;;;;;9.54;94.31;101182.38;5012393;28;20053;-89
2022/05/25 04:39:44;;;;;;;15.80;5.30;;;;;;;9.65;94.20;101185.78;5005910;28;20033;-89
2022/05/25 04:42:10;;;;;;;7.22;4.30;;;;;;;9.62;94.01;101188.66;5007096;28;20707;-88
2022/05/25 04:44:35;;;;;;;6.47;4.30;;;;;;;9.68;94.18;101195.84;4999199;28;20046;-89
2022/05/25 04:47:00;;;;;;;11.20;4.82;;;;;;;9.68;94.54;101198.44;4995165;28;20060;-89
2022/05/25 04:49:26;;;;;;;12.50;4.50;;;;;;;9.70;94.25;101194.78;4995528;28;20018;-89
2022/05/25 04:51:52;;;;;;;8.57;4.55;;;;;;;9.73;94.30;101201.44;5005527;28;20026;-88
2022/05/25 04:54:17;;;;;;;9.90;5.22;;;;;;;9.77;94.29;101207.16;4996926;28;20472;-89
2022/05/25 04:59:27;;;;;;;17.05;5.88;;;;;;;10.04;92.84;101201.19;5003837;28;20040;-89
2022/05/25 05:01:52;;;;;;;9.75;4.47;;;;;;;10.07;92.43;101206.09;4994772;28;20033;-89
2022/05/25 05:04:18;;;;;;;10.50;4.57;;;;;;;10.08;92.71;101199.97;4994969;28;20044;-88
2022/05/25 05:06:44;;;;;;;9.23;4.72;;;;;;;10.16;92.58;101207.81;4969790;28;20046;-88
2022/05/25 05:09:11;;;;;;;8.95;4.75;;;;;;;10.20;92.28;101203.19;4995704;28;20474;-88
2022/05/25 05:11:37;;;;;;;9.93;5.20;;;;;;;10.31;90.99;101209.00;4975118;28;20052;-89
2022/05/25 05:14:03;;;;;;;11.48;5.18;;;;;;;10.50;90.24;101209.88;4991954;28;20033;-88
2022/05/25 05:16:29;;;;;;;11.18;4.60;;;;;;;10.49;90.08;101206.47;4985462;28;20017;-89
2022/05/25 05:19:08;;;;;;;15.10;5.07;;;;;;;10.67;89.47;101209.06;5008388;28;20058;-88
2022/05/25 05:21:59;;;;;;;10.90;4.88;;;;;;;10.70;88.93;101213.97;5007371;28;20034;-87
2022/05/25 05:24:36;;;;;;;12.30;4.82;;;;;;;10.86;87.83;101212.50;4999944;28;20033;-87
2022/05/25 05:27:01;;;;;;;13.85;5.05;;;;;;;11.00;87.90;101212.00;5013241;28;20060;-88
2022/05/25 05:29:30;;;;;;;11.35;5.70;;;;;;;11.15;86.42;101214.06;4977057;28;20057;-88
2022/05/25 05:31:57;;;;;;;9.27;4.75;;;;;;;11.20;86.22;101214.44;4988745;28;20099;-87
2022/05/25 05:34:22;;;;;;;8.50;4.70;;;;;;;11.31;85.39;101224.56;5002796;28;20121;-88
2022/05/25 05:37:00;;;;;;;10.50;4.70;;;;;;;11.38;84.49;101219.59;4987078;28;20041;-87
2022/05/25 05:39:28;;;;;;;15.95;4.82;;;;;;;11.46;84.23;101222.25;5005020;28;20030;-89
2022/05/25 05:42:03;;;;;;;9.75;3.95;;;;;;;11.60;83.85;101221.72;4991270;28;20029;-88
2022/05/25 05:44:36;;;;;;;15.13;4.63;;;;;;;11.82;83.11;101219.56;4978091;28;20108;-89
2022/05/25 05:47:04;;;;;;;11.95;5.00;;;;;;;12.03;82.33;101225.22;5009543;28;20724;-88
2022/05/25 05:49:30;;;;;;;10.50;4.78;;;;;;;12.22;81.52;101226.78;4978881;28;20669;-88
2022/05/25 05:51:55;;;;;;;7.85;4.20;;;;;;;12.50;79.73;101223.94;5002748;28;20034;-89
2022/05/25 05:54:21;;;;;;;10.85;5.20;;;;;;;12.63;79.89;101224.31;4973396;28;20030;-89
2022/05/25 05:56:47;;;;;;;11.02;4.53;;;;;;;12.82;78.40;101218.00;4989480;28;20053;-88
2022/05/25 05:59:12;;;;;;;13.75;4.25;;;;;;;12.92;77.66;101225.69;4978309;28;20483;-88
2022/05/25 06:01:38;;;;;;;12.10;4.40;;;;;;;13.28;76.30;101222.75;4976578;28;20069;-87
2022/05/25 06:04:03;;;;;;;9.82;4.30;;;;;;;13.52;75.76;101223.75;4973647;28;20034;-86
2022/05/25 06:06:29;;;;;;;9.68;3.85;;;;;;;13.72;74.61;101229.41;4991402;28;20547;-86
2022/05/25 06:08:56;;;;;;;7.70;3.25;;;;;;;13.78;74.48;101220.94;4988656;28;20034;-88
2022/05/25 06:11:22;;;;;;;14.85;3.90;;;;;;;14.16;74.02;101223.72;5004918;28;20096;-88
2022/05/25 06:13:48;;;;;;;7.13;3.38;;;;;;;14.24;71.74;101225.50;5013452;28;20038;-88
2022/05/25 06:21:42;;;;;;;7.60;3.00;;;;;;;14.94;69.17;101238.53;4994277;28;20056;-89
2022/05/25 06:24:07;;;;;;;8.85;3.42;;;;;;;15.17;67.95;101232.47;4995715;28;20029;-87
2022/05/25 06:26:33;;;;;;;7.80;2.60;;;;;;;14.98;68.60;101231.97;4977585;28;20026;-88
2022/05/25 06:29:00;;;;;;;9.82;2.40;;;;;;;15.10;67.76;101247.22;4989090;28;20021;-87
2022/05/25 06:31:27;;;;;;;8.63;2.38;;;;;;;15.41;66.07;101235.84;5002662;28;20030;-88
2022/05/25 06:33:52;;;;;;;8.88;2.40;;;;;;;15.65;65.25;101229.59;4991811;28;20032;-87
2022/05/25 06:36:24;;;;;;;9.68;2.92;;;;;;;15.53;64.69;101232.63;4992117;28;20422;-87
2022/05/25 06:38:50;;;;;;;6.10;2.35;;;;;;;15.61;63.47;101229.13;5003540;28;20045;-89
2022/05/25 06:41:16;;;;;;;8.32;2.67;;;;;;;15.92;64.56;101233.44;4994095;28;20041;-88
2022/05/25 06:43:43;;;;;;;5.65;1.85;;;;;;;16.23;63.23;101238.44;4993333;28;20058;-88
2022/05/25 06:46:11;;;;;;;5.28;2.17;;;;;;;16.52;61.92;101236.78;4991865;28;20026;-88
2022/05/25 06:48:37;;;;;;;6.28;2.72;;;;;;;16.59;62.27;101242.09;4993047;28;20380;-88
2022/05/25 06:51:22;;;;;;;6.30;1.80;;;;;;;16.84;61.81;101243.41;4992424;28;20032;-89
2022/05/25 06:53:49;;;;;;;7.00;2.35;;;;;;;17.35;59.21;101245.06;4992495;28;20045;-88
2022/05/25 06:56:16;;;;;;;8.68;2.00;;;;;;;16.65;59.13;101247.41;4981998;28;20056;-87
2022/05/25 06:58:43;;;;;;;5.22;1.73;;;;;;;17.04;59.53;101240.94;4979209;28;20137;-88
2022/05/25 07:01:08;;;;;;;4.43;2.03;;;;;;;17.61;57.02;101238.38;4997234;28;20038;-89
2022/05/25 07:03:34;;;;;;;7.32;1.23;;;;;;;17.95;58.91;101237.59;4990621;28;20045;-88
2022/05/25 07:06:07;;;;;;;5.32;1.48;;;;;;;17.88;54.84;101239.38;5009514;28;20041;-88
2022/05/25 07:08:33;;;;;;;4.05;2.35;;;;;;;17.86;55.10;101242.19;4979581;28;20410;-89
2022/05/25 07:11:00;;;;;;;4.20;1.58;;;;;;;18.25;56.69;101243.41;4993983;28;20034;-86
2022/05/25 07:13:29;;;;;;;5.13;1.13;;;;;;;18.38;53.34;101237.34;5000730;28;20493;-87
2022/05/25 07:16:01;;;;;;;4.57;1.35;;;;;;;18.35;53.77;101243.03;5007088;28;20033;-88
2022/05/25 07:18:28;;;;;;;6.88;1.80;;;;;;;19.15;52.75;101245.00;5000947;28;20037;-87
2022/05/25 07:20:57;;;;;;;2.50;1.00;;;;;;;19.22;51.23;101245.81;4979650;28;20347;-88
2022/05/25 07:23:24;;;;;;;2.75;0.90;;;;;;;19.24;51.14;101247.22;4982100;28;20125;-87
2022/05/25 07:25:49;;;;;;;3.15;1.08;;;;;;;19.54;49.88;101256.53;5010299;28;20058;-87
2022/05/25 07:28:15;;;;;;;2.45;0.90;;;;;;;19.51;50.51;101246.41;4978563;28;20056;-87
2022/05/25 07:30:40;;;;;;;5.60;1.10;;;;;;;19.51;50.43;101251.66;4996185;28;20506;-87
2022/05/25 07:33:06;;;;;;;5.50;0.95;;;;;;;19.37;50.54;101256.94;4990091;28;20112;-87
2022/05/25 07:35:32;;;;;;;2.10;0.77;;;;;;;19.75;48.03;101255.50;4981561;28;20459;-87
2022/05/25 07:37:58;;;;;;;3.35;0.90;;;;;;;19.64;47.62;101255.09;4993470;28;20384;-87
2022/05/25 07:40:40;;;;;;;3.67;1.10;;;;;;;19.51;47.75;101254.31;4992060;28;20104;-87
2022/05/25 07:43:10;;;;;;;1.65;0.70;;;;;;;19.33;47.81;101260.19;4976189;28;20038;-87
2022/05/25 07:45:36;;;;;;;1.25;0.57;;;;;;;19.67;48.28;101255.72;4992101;28;20036;-86
2022/05/25 07:48:02;;;;;;;0.98;0.43;;;;;;;19.91;48.23;101251.63;4986353;28;20034;-87
2022/05/25 07:50:28;;;;;;;2.05;0.60;;;;;;;20.02;46.48;101253.59;4977798;28;20057;-87
2022/05/25 07:52:57;;;;;;;4.53;0.77;;;;;;;20.13;46.85;101260.84;4988870;28;20109;-88
2022/05/25 07:55:23;;;;;;;5.97;0.75;;;;;;;20.19;45.75;101265.31;4981644;28;20122;-87
2022/05/25 07:57:49;;;;;;;2.42;0.50;;;;;;;19.68;45.55;101263.38;4988566;28;20120;-87
2022/05/25 08:00:16;;;;;;;6.32;1.17;;;;;;;19.71;46.02;101264.81;4992104;28;20084;-87
2022/05/25 08:05:43;;;;;;;5.13;0.70;;;;;;;20.33;45.44;101268.69;4990033;28;20494;-87
2022/05/25 08:08:35;;;;;;;2.67;0.32;;;;;;;20.43;45.71;101271.66;4994159;28;20144;-88
2022/05/25 08:11:10;;;;;;;7.13;0.70;;;;;;;20.87;44.77;101276.31;4988811;28;20069;-88
2022/05/25 08:13:40;;;;;;;3.25;1.35;;;;;;;20.36;44.53;101270.91;4994369;28;20049;-85
2022/05/25 08:16:05;;;;;;;3.63;0.68;;;;;;;20.44;44.49;101280.41;4992845;28;20466;-89
2022/05/25 08:18:31;;;;;;;4.10;0.73;;;;;;;20.42;45.01;101271.91;4993733;28;20026;-87
2022/05/25 08:20:57;;;;;;;1.55;0.30;;;;;;;20.71;44.27;101273.19;4995192;28;20087;-89
2022/05/25 08:23:22;;;;;;;2.75;0.80;;;;;;;21.09;45.03;101268.88;4994207;28;20030;-87
2022/05/25 08:25:48;;;;;;;1.55;0.55;;;;;;;21.17;44.55;101264.16;4998093;28;20044;-87
2022/05/25 08:28:14;;;;;;;2.05;0.57;;;;;;;21.30;42.65;101271.13;4980229;28;20037;-87
2022/05/25 08:30:42;;;;;;;5.03;0.77;;;;;;;21.25;42.87;101272.78;4993901;28;20045;-88
2022/05/25 08:33:08;;;;;;;2.08;0.45;;;;;;;21.34;42.89;101282.06;5000223;28;20120;-88
2022/05/25 08:35:34;;;;;;;5.47;0.68;;;;;;;21.01;43.13;101277.88;4993851;28;20200;-87
2022/05/25 08:38:00;;;;;;;3.92;0.95;;;;;;;21.27;43.73;101279.50;4991236;28;20475;-87
2022/05/25 08:40:28;;;;;;;3.95;0.52;;;;;;;22.12;42.63;101270.16;4987593;28;20033;-88
2022/05/25 08:43:03;;;;;;;2.97;0.52;;;;;;;22.04;41.72;101271.25;4983352;28;20038;-87
2022/05/25 08:45:36;;;;;;;2.13;0.75;;;;;;;21.75;42.07;101275.44;4974027;28;20561;-87
2022/05/25 08:48:03;;;;;;;2.72;0.60;;;;;;;21.90;42.78;101275.88;4972117;28;20026;-88
2022/05/25 08:50:30;;;;;;;1.77;0.55;;;;;;;21.72;42.50;101265.31;4991895;28;20034;-87
2022/05/25 08:52:59;;;;;;;3.47;0.90;;;;;;;21.73;43.91;101264.28;5004122;28;20397;-86
2022/05/25 08:55:39;;;;;;;3.22;0.50;;;;;;;21.57;41.12;101269.09;4990198;28;20471;-89
2022/05/25 08:58:06;;;;;;;4.00;0.40;;;;;;;21.54;42.68;101266.91;4984033;28;20030;-87
2022/05/25 09:00:32;;;;;;;1.58;0.38;;;;;;;22.06;41.56;101273.69;4992591;28;20025;-90
2022/05/25 09:03:11;;;;;;;1.55;0.80;;;;;;;21.85;40.99;101269.63;4987328;28;20100;-86
2022/05/25 09:05:46;;;;;;;6.78;0.60;;;;;;;21.90;41.52;101277.72;4987362;28;20035;-87
2022/05/25 09:08:39;;;;;;;1.40;0.50;;;;;;;21.98;41.17;101277.41;4974102;28;20034;-87
2022/05/25 09:11:07;;;;;;;;;;;;;;;21.70;41.50;101277.91;4986740;28;20034;-87
2022/05/25 09:13:45;;;;;;;1.38;0.45;;;;;;;21.59;42.55;101268.91;4988290;28;19914;-88
2022/05/25 09:16:16;;;;;;;1.80;0.60;;;;;;;21.87;40.97;101272.84;4974164;28;20037;-87
2022/05/25 09:18:59;;;;;;;2.25;0.65;;;;;;;21.76;42.31;101269.13;5002925;28;20115;-87
2022/05/25 09:21:30;;;;;;;3.33;1.00;;;;;;;21.53;41.83;101273.22;4973946;28;20045;-87
2022/05/25 09:23:58;;;;;;;2.05;0.40;;;;;;;21.76;42.21;101267.28;4985362;28;20046;-88
2022/05/25 09:26:25;;;;;;;1.08;0.40;;;;;;;21.97;40.56;101263.41;4987964;28;20229;-88
2022/05/25 09:28:57;;;;;;;2.55;0.35;;;;;;;21.93;41.02;101259.59;4989167;28;20040;-87
2022/05/25 09:31:31;;;;;;;3.88;0.60;;;;;;;21.99;42.44;101267.69;5004081;28;20152;-85
2022/05/25 09:34:06;;;;;;;2.17;0.60;;;;;;;22.06;41.30;101273.69;4987437;28;20042;-87
2022/05/25 09:36:40;;;;;;;1.02;0.30;;;;;;;22.73;41.93;101266.56;4971295;28;20030;-88
2022/05/25 09:39:28;;;;;;;1.33;0.40;;;;;;;22.16;41.74;101284.53;4972462;28;20049;-87
2022/05/25 09:41:59;;;;;;;1.85;0.30;;;;;;;22.57;40.62;101275.09;4969647;28;20038;-87
2022/05/25 09:44:26;;;;;;;1.88;0.40;;;;;;;22.34;39.40;101267.91;4971017;28;20121;-85
2022/05/25 09:46:59;;;;;;;1.58;0.40;;;;;;;22.65;38.50;101261.56;4990381;28;20033;-86
2022/05/25 09:49:33;;;;;;;3.42;0.50;;;;;;;22.51;41.01;101276.00;5003534;28;20037;-88
2022/05/25 09:52:02;;;;;;;1.67;0.40;;;;;;;22.45;40.63;101266.31;4992229;28;20124;-86
2022/05/25 09:54:35;;;;;;;1.15;0.55;;;;;;;22.22;40.45;101262.50;4988462;28;20498;-87
2022/05/25 09:57:09;;;;;;;3.72;0.20;;;;;;;21.89;41.51;101284.81;4972238;28;20121;-88
2022/05/25 09:59:47;;;;;;;1.42;0.50;;;;;;;21.97;42.10;101273.97;5003057;28;20042;-86
2022/05/25 10:02:38;;;;;;;0.60;0.47;;;;;;;22.13;42.50;101272.59;4984181;28;20041;-87
2022/05/25 10:05:19;;;;;;;3.60;0.45;;;;;;;22.45;40.30;101283.00;4967850;28;20577;-86
2022/05/25 10:08:15;;;;;;;5.32;0.43;;;;;;;21.76;40.26;101277.84;4985705;28;20380;-90
2022/05/25 10:10:56;;;;;;;6.38;2.97;;;;;;;22.18;41.58;101277.19;4981860;28;20084;-87
2022/05/25 10:13:36;;;;;;;2.00;0.55;;;;;;;21.85;39.76;101281.03;4971186;28;20030;-92
2022/05/25 10:16:25;;;;;;;2.30;0.40;;;;;;;21.89;42.14;101276.91;4972147;28;20394;-90
2022/05/25 10:18:50;;;;;;;1.10;0.30;;;;;;;22.21;40.26;101279.41;4968288;28;20038;-88
2022/05/25 10:21:26;;;;;;;2.55;0.57;;;;;;;21.99;41.03;101278.22;4965262;28;20040;-87
2022/05/25 10:23:53;;;;;;;2.97;0.40;;;;;;;22.15;40.51;101273.16;4988638;28;20732;-87
2022/05/25 10:26:32;;;;;;;0.82;0.30;;;;;;;21.83;41.67;101277.78;4984035;28;20026;-87
2022/05/25 10:29:06;;;;;;;1.80;0.28;;;;;;;21.48;40.80;101280.16;4985739;28;20070;-89
2022/05/25 10:37:29;;;;;;;0.93;0.77;;;;;;;21.60;41.27;101278.41;5008844;28;20052;-87
2022/05/25 10:40:05;;;;;;;0.68;0.40;;;;;;;21.23;39.85;101280.13;4991140;28;20036;-88
2022/05/25 10:42:39;;;;;;;1.88;0.82;;;;;;;21.18;41.02;101293.97;4991417;28;20084;-89
2022/05/25 10:45:10;;;;;;;1.15;0.40;;;;;;;21.01;40.46;101293.69;5007132;28;20630;-89
2022/05/25 10:47:55;;;;;;;1.77;0.57;;;;;;;21.48;40.95;101282.81;4984374;28;20471;-83
2022/05/25 10:50:25;;;;;;;2.03;0.50;;;;;;;21.35;40.89;101278.41;5005830;28;20041;-85
2022/05/25 10:53:06;;;;;;;1.67;0.40;;;;;;;21.11;41.15;101275.53;4991652;28;20536;-89
2022/05/25 10:55:41;;;;;;;2.35;0.40;;;;;;;21.48;41.37;101274.88;4995347;28;20486;-86
2022/05/25 10:58:18;;;;;;;4.05;0.43;;;;;;;22.06;41.97;101268.41;4985075;28;20030;-89
2022/05/25 11:01:12;;;;;;;1.48;0.50;;;;;;;21.43;39.57;101275.50;4991973;28;20042;-86
2022/05/25 11:03:46;;;;;;;4.60;0.55;;;;;;;21.73;40.41;101282.75;5006440;28;20056;-88
2022/05/25 11:06:29;;;;;;;4.50;1.30;;;;;;;22.19;40.26;101273.53;5003772;28;20041;-90
2022/05/25 11:08:54;;;;;;;2.15;0.30;;;;;;;22.14;39.74;101281.31;4973491;28;20030;-90
2022/05/25 11:11:31;;;;;;;2.25;0.70;;;;;;;22.10;39.27;101282.78;4999520;28;20451;-91
2022/05/25 11:14:44;;;;;;;1.50;0.32;;;;;;;21.99;39.75;101278.22;4995115;28;20061;-88
2022/05/25 11:17:30;;;;;;;0.98;0.40;;;;;;;21.84;40.84;101282.03;5009578;28;20038;-87
2022/05/25 11:20:16;;;;;;;1.17;0.52;;;;;;;22.20;40.20;101271.69;4993973;28;20038;-90
2022/05/25 11:22:45;;;;;;;1.67;0.40;;;;;;;22.17;40.37;101283.50;4993456;28;20411;-89
2022/05/25 11:25:36;;;;;;;1.65;0.73;;;;;;;21.92;39.71;101287.00;4998503;28;20037;-88
2022/05/25 11:28:15;;;;;;;2.50;0.40;;;;;;;21.61;40.62;101280.03;4989407;28;20125;-87
2022/05/25 11:30:53;;;;;;;2.58;0.70;;;;;;;21.73;42.79;101277.47;4994368;28;20140;-89
2022/05/25 11:33:25;;;;;;;4.93;0.50;;;;;;;21.98;41.80;101274.75;4977674;28;20041;-87
2022/05/25 11:36:28;;;;;;;1.10;0.50;;;;;;;22.10;40.08;101273.00;5006194;28;20026;-86
2022/05/25 11:39:29;;;;;;;2.13;0.45;;;;;;;22.44;40.20;101265.50;4989297;28;20461;-87
2022/05/25 11:42:09;;;;;;;2.65;0.93;;;;;;;22.39;38.26;101256.66;4972071;28;20044;-88
2022/05/25 11:44:43;;;;;;;2.80;0.73;;;;;;;21.73;39.79;101261.66;5008858;28;20037;-87
2022/05/25 11:47:38;;;;;;;6.20;1.42;;;;;;;22.16;39.88;101256.28;5008057;28;20037;-87
2022/05/25 11:50:09;;;;;;;4.60;0.77;;;;;;;22.06;42.17;101263.13;4977432;28;20156;-86
2022/05/25 11:53:01;;;;;;;4.38;0.52;;;;;;;22.30;39.35;101256.13;4976188;28;20140;-86
2022/05/25 11:55:41;;;;;;;3.63;0.65;;;;;;;22.31;41.31;101261.19;4975784;28;20108;-88
2022/05/25 11:58:47;;;;;;;2.00;0.45;;;;;;;22.12;38.72;101251.69;4991550;28;20041;-88
2022/05/25 12:01:12;;;;;;;2.45;0.90;;;;;;;22.06;40.23;101255.22;5005211;28;20031;-86
2022/05/25 12:04:16;;;;;;;3.20;0.60;;;;;;;21.64;39.48;101265.59;5004857;28;20738;-87
2022/05/25 12:07:13;;;;;;;7.00;0.50;;;;;;;21.54;40.53;101268.72;4991277;28;20038;-88
2022/05/25 12:09:46;;;;;;;2.92;0.35;;;;;;;21.71;41.73;101256.56;4995733;28;20661;-88
2022/05/25 12:12:21;;;;;;;;;;;;;;;22.07;41.39;101249.69;5008527;28;20049;-87
2022/05/25 12:15:09;;;;;;;1.83;0.50;;;;;;;22.00;39.43;101241.06;4976809;28;19914;-89